Time;durP1;ratioP1;P1;durP2;ratioP2;P2;SDS_P1;SDS_P2;PMS_P1;PMS_P2;Temp;Humidity;BMP_temperature;BMP_pressure;BME280_temperature;BME280_humidity;BME280_pressure;Samples;Min_cycle;Max_cycle;Signal;HPM_P1;HPM_P2
2023/12/10 00:02:16;;;;;;;1.80;1.70;;;;;;;5.50;67.84;99279.09;4997108;28;96706;-55
2023/12/10 00:04:43;;;;;;;2.63;2.00;;;;;;;5.51;67.67;99286.09;4998530;28;97138;-55
2023/12/10 00:07:09;;;;;;;2.00;1.90;;;;;;;5.49;67.71;99277.63;4996613;28;97024;-54
2023/12/10 00:09:34;;;;;;;3.43;1.93;;;;;;;5.49;67.62;99285.84;4997189;28;97093;-55
2023/12/10 00:12:00;;;;;;;2.87;2.17;;;;;;;5.50;67.68;99289.31;4995960;28;96806;-54
2023/12/10 00:14:25;;;;;;;3.07;2.17;;;;;;;5.52;67.70;99293.03;5002690;28;97540;-54
2023/12/10 00:16:51;;;;;;;2.27;2.17;;;;;;;5.53;67.77;99289.06;4999580;28;97227;-55
2023/12/10 00:19:16;;;;;;;2.47;2.30;;;;;;;5.57;67.80;99292.25;4998818;28;96787;-55
2023/12/10 00:21:42;;;;;;;1.90;1.80;;;;;;;5.57;67.55;99286.00;4994498;28;97399;-54
2023/12/10 00:24:07;;;;;;;2.43;2.23;;;;;;;5.59;67.69;99296.50;5000614;28;97203;-55
2023/12/10 00:26:33;;;;;;;2.57;1.93;;;;;;;5.61;67.73;99293.97;4994880;28;97708;-55
2023/12/10 00:28:58;;;;;;;3.60;3.30;;;;;;;5.59;67.48;99294.47;4996557;28;97407;-54
2023/12/10 00:31:24;;;;;;;3.87;2.93;;;;;;;5.60;67.59;99303.44;4994056;28;97516;-55
2023/12/10 00:33:49;;;;;;;2.87;2.67;;;;;;;5.59;67.62;99301.97;4995938;28;97267;-55
2023/12/10 00:36:15;;;;;;;2.50;2.30;;;;;;;5.57;67.54;99308.72;4999594;28;97021;-55
2023/12/10 00:38:42;;;;;;;4.30;2.60;;;;;;;5.55;67.50;99319.44;4997057;28;96792;-55
2023/12/10 00:41:08;;;;;;;3.40;2.33;;;;;;;5.54;67.66;99317.22;4995609;28;97361;-55
2023/12/10 00:43:33;;;;;;;2.50;2.30;;;;;;;5.52;67.48;99328.69;5012950;28;98571;-54
2023/12/10 00:45:58;;;;;;;2.50;2.30;;;;;;;5.52;67.70;99339.66;4997875;28;96986;-55
2023/12/10 00:48:24;;;;;;;2.33;2.13;;;;;;;5.49;67.43;99342.69;4999560;28;96652;-55
2023/12/10 00:50:49;;;;;;;2.87;1.93;;;;;;;5.47;67.46;99337.75;4994604;28;97345;-55
2023/12/10 00:53:14;;;;;;;2.33;2.13;;;;;;;5.43;67.39;99342.75;4997199;28;97044;-55
2023/12/10 00:55:40;;;;;;;2.00;1.90;;;;;;;5.39;67.25;99338.78;4992723;28;97071;-54
2023/12/10 00:58:06;;;;;;;2.53;2.33;;;;;;;5.34;67.27;99348.56;4999461;28;97008;-55
2023/12/10 01:00:31;;;;;;;5.50;2.43;;;;;;;5.30;67.23;99352.84;4997995;28;97400;-55
2023/12/10 01:02:56;;;;;;;7.40;2.43;;;;;;;5.26;67.33;99355.09;4999559;28;96798;-55
2023/12/10 01:05:22;;;;;;;2.40;2.20;;;;;;;5.20;67.36;99357.91;5000447;28;97014;-55
2023/12/10 01:07:47;;;;;;;2.23;2.10;;;;;;;5.16;67.51;99359.44;4995103;28;96859;-54
2023/12/10 01:10:13;;;;;;;3.60;2.43;;;;;;;5.11;67.61;99369.19;4998632;28;97248;-55
2023/12/10 01:12:38;;;;;;;2.20;2.00;;;;;;;5.17;67.79;99366.41;4997403;28;97292;-54
2023/12/10 01:15:11;;;;;;;1.77;1.67;;;;;;;5.20;67.86;99382.56;4996050;28;96745;-55
2023/12/10 01:17:36;;;;;;;6.57;2.20;;;;;;;5.21;67.99;99381.34;4994288;28;97309;-56
2023/12/10 01:20:03;;;;;;;8.70;2.73;;;;;;;5.25;68.09;99383.78;4997146;28;97419;-55
2023/12/10 01:22:29;;;;;;;5.23;1.70;;;;;;;5.34;68.29;99392.44;4998346;28;99009;-55
2023/12/10 01:24:55;;;;;;;6.40;2.60;;;;;;;5.48;68.78;99388.59;4996239;28;97123;-55
2023/12/10 01:27:21;;;;;;;5.43;1.80;;;;;;;5.68;69.15;99394.88;4997117;28;96763;-54
2023/12/10 01:29:47;;;;;;;10.50;2.37;;;;;;;5.84;69.19;99391.25;4995838;28;99663;-54
2023/12/10 01:32:12;;;;;;;8.53;2.07;;;;;;;5.99;69.25;99389.59;4998022;28;97455;-54
2023/12/10 01:34:38;;;;;;;4.60;1.73;;;;;;;6.12;69.18;99402.69;4998564;28;97029;-55
2023/12/10 01:37:03;;;;;;;20.27;2.80;;;;;;;6.21;69.08;99394.84;4996526;28;97256;-55
2023/12/10 01:39:30;;;;;;;10.07;2.07;;;;;;;6.28;69.29;99405.25;4996731;28;96916;-54
2023/12/10 01:41:56;;;;;;;14.37;3.10;;;;;;;6.37;69.24;99412.41;4999003;28;96930;-54
2023/12/10 01:44:22;;;;;;;9.40;1.90;;;;;;;6.45;69.17;99415.31;4999177;28;97848;-54
2023/12/10 01:46:47;;;;;;;12.53;2.80;;;;;;;6.52;69.20;99412.72;5001548;28;97130;-54
2023/12/10 01:49:14;;;;;;;8.27;1.70;;;;;;;6.58;69.30;99413.41;4998374;28;97135;-55
2023/12/10 01:51:41;;;;;;;10.33;2.00;;;;;;;6.65;69.18;99426.59;4997375;28;97216;-55
2023/12/10 01:54:08;;;;;;;7.67;2.43;;;;;;;6.70;69.15;99433.28;4995840;28;97059;-54
2023/12/10 01:56:34;;;;;;;16.03;2.80;;;;;;;6.75;69.22;99437.94;5000569;28;97339;-54
2023/12/10 01:58:59;;;;;;;8.67;2.40;;;;;;;6.80;69.21;99448.88;4993027;27;97504;-55
2023/12/10 02:01:26;;;;;;;12.33;2.33;;;;;;;6.86;69.37;99446.78;4995694;28;97096;-54
2023/12/10 02:03:51;;;;;;;14.93;2.70;;;;;;;6.89;69.43;99465.00;4996810;28;96973;-55
2023/12/10 02:06:16;;;;;;;12.40;2.93;;;;;;;6.92;69.46;99463.94;4998329;28;96817;-55
2023/12/10 02:08:44;;;;;;;13.00;2.53;;;;;;;6.94;69.51;99464.16;4994192;28;97596;-55
2023/12/10 02:11:09;;;;;;;17.43;2.67;;;;;;;6.98;69.34;99478.34;4994608;28;97415;-54
2023/12/10 02:13:34;;;;;;;15.33;2.40;;;;;;;7.00;69.33;99477.84;4996055;28;97140;-55
2023/12/10 02:16:00;;;;;;;12.07;2.07;;;;;;;7.01;69.36;99469.09;4995786;28;97132;-55
2023/12/10 02:18:26;;;;;;;10.70;2.13;;;;;;;7.00;69.32;99477.84;4996034;28;97443;-55
2023/12/10 02:20:51;;;;;;;16.13;2.90;;;;;;;7.01;69.33;99479.34;4994631;28;98080;-54
2023/12/10 02:23:46;;;;;;;11.93;2.80;;;;;;;7.01;69.52;99488.31;4995064;28;96983;-54
2023/12/10 02:26:12;;;;;;;6.63;1.63;;;;;;;7.03;69.38;99485.06;4997286;28;96996;-55
2023/12/10 02:28:37;;;;;;;10.50;2.40;;;;;;;7.04;69.20;99492.81;4993253;28;97528;-54
2023/12/10 02:31:03;;;;;;;14.30;2.33;;;;;;;7.07;69.30;99488.28;4995871;28;97139;-55
2023/12/10 02:33:28;;;;;;;14.53;2.60;;;;;;;7.07;69.22;99489.00;4998932;28;97022;-55
2023/12/10 02:35:54;;;;;;;15.83;3.27;;;;;;;7.07;69.30;99487.53;4996398;28;97036;-55
2023/12/10 02:38:21;;;;;;;14.23;2.60;;;;;;;7.06;69.19;99497.78;4996221;28;96973;-55
2023/12/10 02:40:47;;;;;;;15.40;2.63;;;;;;;7.08;69.13;99500.75;4993758;28;97445;-54
2023/12/10 02:43:12;;;;;;;17.43;2.90;;;;;;;7.02;69.17;99498.09;4997030;28;96559;-54
2023/12/10 02:45:38;;;;;;;12.70;2.47;;;;;;;7.06;69.07;99503.28;4999011;28;97026;-55
2023/12/10 02:48:03;;;;;;;18.47;3.10;;;;;;;7.02;69.14;99511.81;4996653;28;97352;-55
2023/12/10 02:50:29;;;;;;;13.20;2.20;;;;;;;7.00;69.16;99517.09;4997108;28;97341;-55
2023/12/10 02:52:54;;;;;;;8.90;2.00;;;;;;;6.99;69.25;99518.34;4997781;28;98891;-55
2023/12/10 02:55:20;;;;;;;17.10;2.87;;;;;;;6.96;69.17;99522.13;5000476;28;100588;-55
2023/12/10 02:57:45;;;;;;;21.73;2.47;;;;;;;6.95;69.14;99523.41;4996904;28;99277;-55
2023/12/10 03:00:11;;;;;;;14.03;2.40;;;;;;;6.94;69.11;99526.69;4997383;28;97564;-54
2023/12/10 03:02:36;;;;;;;11.87;1.70;;;;;;;6.91;69.02;99527.72;4999655;28;97263;-54
2023/12/10 03:05:03;;;;;;;23.13;2.60;;;;;;;6.87;69.11;99533.50;4996952;28;96979;-55
2023/12/10 03:07:28;;;;;;;18.90;3.53;;;;;;;6.88;69.13;99534.97;4997805;28;97767;-55
2023/12/10 03:09:54;;;;;;;15.87;2.93;;;;;;;6.90;68.84;99540.72;4997487;28;97217;-55
2023/12/10 03:12:19;;;;;;;11.97;2.77;;;;;;;6.93;69.20;99553.44;4998677;28;96819;-55
2023/12/10 03:14:45;;;;;;;21.30;3.37;;;;;;;6.94;69.24;99543.19;4996163;28;96859;-55
2023/12/10 03:17:10;;;;;;;16.47;2.63;;;;;;;6.98;69.18;99540.88;4999928;28;97020;-55
2023/12/10 03:19:38;;;;;;;13.97;2.43;;;;;;;6.98;69.02;99536.09;4996672;28;98354;-55
2023/12/10 03:22:03;;;;;;;14.57;3.13;;;;;;;6.98;69.13;99541.59;4992432;28;97381;-55
2023/12/10 03:24:28;;;;;;;17.87;2.70;;;;;;;6.98;69.08;99529.88;5027475;22;97021;-58
2023/12/10 03:26:54;;;;;;;21.90;3.20;;;;;;;7.00;69.01;99535.59;5021781;27;97152;-58
2023/12/10 03:29:19;;;;;;;14.77;2.77;;;;;;;7.02;69.04;99546.81;5019669;28;99011;-57
2023/12/10 03:31:45;;;;;;;22.57;3.67;;;;;;;7.02;69.10;99542.06;5023313;27;97096;-57
2023/12/10 03:34:10;;;;;;;18.50;3.20;;;;;;;7.01;69.02;99548.06;5012063;28;97124;-58
2023/12/10 03:36:35;;;;;;;21.13;3.17;;;;;;;7.02;69.24;99553.06;5004552;28;96849;-58
2023/12/10 03:39:01;;;;;;;23.70;3.00;;;;;;;7.02;69.15;99555.06;5003311;28;98559;-56
2023/12/10 03:41:26;;;;;;;25.40;3.63;;;;;;;7.01;69.05;99550.81;5004499;28;97395;-58
2023/12/10 03:43:51;;;;;;;14.37;3.50;;;;;;;6.97;69.25;99550.38;5004402;28;97244;-58
2023/12/10 03:46:17;;;;;;;20.30;3.17;;;;;;;6.97;69.25;99553.88;5004751;27;97034;-58
2023/12/10 03:48:42;;;;;;;14.20;2.90;;;;;;;6.99;69.22;99562.34;5004507;28;97203;-58
2023/12/10 03:51:07;;;;;;;12.60;2.33;;;;;;;7.03;69.24;99564.78;5003069;28;97110;-58
2023/12/10 03:53:33;;;;;;;10.97;3.30;;;;;;;7.03;69.28;99560.03;5005863;28;97017;-58
2023/12/10 03:55:58;;;;;;;16.10;2.73;;;;;;;7.05;69.36;99562.28;5004066;28;97444;-58
2023/12/10 03:58:24;;;;;;;14.50;2.93;;;;;;;7.05;69.14;99563.03;5004580;28;97353;-58
2023/12/10 04:00:49;;;;;;;14.07;2.57;;;;;;;7.05;69.42;99568.53;5001806;28;97302;-58
2023/12/10 04:03:15;;;;;;;17.50;2.97;;;;;;;7.09;69.17;99576.50;5003605;28;97242;-58
2023/12/10 04:05:40;;;;;;;18.70;2.70;;;;;;;7.11;69.34;99573.22;5004843;28;97182;-57
2023/12/10 04:08:05;;;;;;;12.13;2.97;;;;;;;7.13;69.19;99582.44;5003719;28;97738;-57
2023/12/10 04:10:31;;;;;;;22.40;4.30;;;;;;;7.12;69.18;99582.94;5003768;28;97282;-57
2023/12/10 04:12:56;;;;;;;14.33;3.67;;;;;;;7.16;69.30;99578.63;5003403;28;97350;-57
2023/12/10 04:15:21;;;;;;;12.00;2.63;;;;;;;7.16;69.36;99594.41;5004596;28;97265;-58
2023/12/10 04:17:48;;;;;;;20.80;2.90;;;;;;;7.17;69.19;99593.88;5004604;28;97045;-58
2023/12/10 04:20:14;;;;;;;19.77;3.20;;;;;;;7.18;69.18;99603.63;5003662;28;96957;-57
2023/12/10 04:22:39;;;;;;;24.37;3.20;;;;;;;7.19;69.31;99593.38;5003007;28;97258;-57
2023/12/10 04:25:05;;;;;;;20.30;3.50;;;;;;;7.19;69.38;99596.88;5002547;28;96826;-57
2023/12/10 04:27:30;;;;;;;17.97;3.30;;;;;;;7.21;69.32;99597.09;5004153;28;96946;-58
2023/12/10 04:29:56;;;;;;;16.50;3.43;;;;;;;7.23;69.27;99593.81;5003794;28;96693;-57
2023/12/10 04:32:21;;;;;;;16.20;3.20;;;;;;;7.23;69.33;99594.56;5005511;28;96889;-57
2023/12/10 04:34:46;;;;;;;17.00;3.33;;;;;;;7.23;69.34;99594.56;5007579;28;97466;-57
2023/12/10 04:37:12;;;;;;;11.50;2.90;;;;;;;7.19;69.35;99604.38;5007838;28;96984;-58
2023/12/10 04:39:37;;;;;;;15.67;3.40;;;;;;;7.21;69.33;99599.09;5007253;28;97375;-57
2023/12/10 04:42:03;;;;;;;12.53;2.50;;;;;;;7.19;69.22;99601.63;5006900;28;97052;-57
2023/12/10 04:44:28;;;;;;;15.60;2.97;;;;;;;7.16;69.36;99606.13;5006962;28;97258;-59
2023/12/10 04:46:54;;;;;;;12.33;3.03;;;;;;;7.19;69.52;99598.88;5007467;28;97147;-57
2023/12/10 04:49:19;;;;;;;16.20;3.30;;;;;;;7.17;69.56;99595.88;5006444;28;97436;-58
2023/12/10 04:51:44;;;;;;;15.47;3.13;;;;;;;7.17;69.55;99599.38;5007234;28;96649;-58
2023/12/10 04:54:10;;;;;;;17.23;2.53;;;;;;;7.17;69.65;99595.88;5006157;28;97183;-58
2023/12/10 04:56:35;;;;;;;13.47;3.10;;;;;;;7.16;69.73;99592.38;5004460;28;97082;-58
2023/12/10 04:59:00;;;;;;;9.27;2.40;;;;;;;7.17;69.74;99584.88;5007294;28;97198;-57
2023/12/10 05:01:26;;;;;;;8.80;2.50;;;;;;;7.19;69.62;99593.38;5008178;28;97288;-57
2023/12/10 05:03:51;;;;;;;8.80;2.33;;;;;;;7.21;69.47;99599.09;5005980;28;97527;-58
2023/12/10 05:06:17;;;;;;;16.37;3.17;;;;;;;7.20;69.55;99595.63;5007700;28;97798;-57
2023/12/10 05:08:42;;;;;;;12.30;3.07;;;;;;;7.20;69.63;99594.88;5007768;28;97961;-56
2023/12/10 05:11:08;;;;;;;15.43;2.03;;;;;;;7.21;69.45;99593.59;5006282;28;97151;-57
2023/12/10 05:13:33;;;;;;;8.63;2.33;;;;;;;7.21;69.52;99596.34;5006677;28;97559;-57
2023/12/10 05:15:59;;;;;;;10.90;2.77;;;;;;;7.20;69.60;99594.88;5004847;28;99835;-59
2023/12/10 05:18:24;;;;;;;11.40;3.03;;;;;;;7.19;69.61;99582.38;5007017;28;97238;-58
2023/12/10 05:20:50;;;;;;;8.13;2.47;;;;;;;7.17;69.74;99587.63;5008192;28;97132;-58
2023/12/10 05:23:15;;;;;;;14.60;2.47;;;;;;;7.19;69.67;99585.13;5005069;28;97053;-58
2023/12/10 05:25:40;;;;;;;12.27;2.50;;;;;;;7.18;69.72;99584.38;5006241;28;98338;-58
2023/12/10 05:28:06;;;;;;;9.50;2.13;;;;;;;7.19;69.59;99591.38;5007760;28;97087;-58
2023/12/10 05:30:31;;;;;;;10.17;2.40;;;;;;;7.21;69.43;99591.59;5006603;28;97340;-58
2023/12/10 05:32:57;;;;;;;10.87;2.33;;;;;;;7.20;69.56;99586.63;5005916;28;97036;-57
2023/12/10 05:35:22;;;;;;;16.17;2.47;;;;;;;7.20;69.67;99578.38;5007892;28;98340;-57
2023/12/10 05:37:47;;;;;;;9.70;2.43;;;;;;;7.18;69.40;99583.63;5007424;28;97213;-58
2023/12/10 05:40:13;;;;;;;10.70;2.20;;;;;;;7.21;69.50;99588.09;5006086;28;96625;-57
2023/12/10 05:42:39;;;;;;;5.87;1.90;;;;;;;7.19;69.50;99585.88;5007087;28;97439;-57
2023/12/10 05:45:05;;;;;;;8.03;2.67;;;;;;;7.21;69.35;99582.59;5007196;28;97655;-57
2023/12/10 05:47:30;;;;;;;7.57;2.20;;;;;;;7.21;69.42;99585.34;5006623;28;96692;-58
2023/12/10 05:49:56;;;;;;;5.47;2.00;;;;;;;7.18;69.37;99587.13;5004662;28;96748;-58
2023/12/10 05:52:21;;;;;;;10.90;2.00;;;;;;;7.15;69.46;99582.66;5006086;28;96692;-57
2023/12/10 05:54:46;;;;;;;9.07;1.93;;;;;;;7.14;69.46;99589.41;5006772;28;97953;-58
2023/12/10 05:57:12;;;;;;;10.60;1.97;;;;;;;7.17;69.44;99593.13;5006249;28;97204;-58
2023/12/10 05:59:37;;;;;;;7.63;1.63;;;;;;;7.18;69.25;99598.13;5006170;28;97453;-57
2023/12/10 06:02:03;;;;;;;8.53;2.07;;;;;;;7.17;69.38;99598.63;5005599;28;96813;-58
2023/12/10 06:04:28;;;;;;;4.63;1.97;;;;;;;7.18;69.33;99609.13;5005562;28;97517;-57
2023/12/10 06:06:54;;;;;;;4.27;1.37;;;;;;;7.18;69.24;99600.88;5007800;28;100010;-58
2023/12/10 06:09:19;;;;;;;5.33;1.27;;;;;;;7.19;69.36;99596.13;5006705;28;102118;-57
2023/12/10 06:11:44;;;;;;;7.37;1.30;;;;;;;7.17;69.20;99601.38;5006316;28;97542;-57
2023/12/10 06:14:10;;;;;;;5.77;1.77;;;;;;;7.14;69.30;99605.91;5005375;28;97657;-57
2023/12/10 06:16:35;;;;;;;13.00;1.43;;;;;;;7.12;69.41;99610.44;5006187;28;96867;-57
2023/12/10 06:19:00;;;;;;;7.63;1.83;;;;;;;7.10;69.37;99601.97;5006533;28;97054;-59
2023/12/10 06:21:26;;;;;;;8.70;1.90;;;;;;;7.09;69.36;99608.75;5004824;28;97476;-57
2023/12/10 06:23:51;;;;;;;10.30;2.30;;;;;;;7.07;69.36;99600.28;5004691;28;99000;-57
2023/12/10 06:26:16;;;;;;;6.87;1.47;;;;;;;7.07;69.35;99603.03;5004390;28;97189;-57
2023/12/10 06:28:42;;;;;;;6.67;1.50;;;;;;;7.08;69.31;99605.25;5006315;28;98109;-58
2023/12/10 06:31:07;;;;;;;5.80;1.40;;;;;;;7.08;69.39;99602.50;5004774;28;96803;-59
2023/12/10 06:33:33;;;;;;;4.57;1.53;;;;;;;7.06;69.34;99607.78;5004790;28;97037;-57
2023/12/10 06:35:58;;;;;;;6.97;1.40;;;;;;;7.05;69.27;99623.53;5006882;28;96742;-59
2023/12/10 06:38:23;;;;;;;3.03;1.10;;;;;;;7.02;69.37;99613.56;5005188;28;96374;-58
2023/12/10 06:40:49;;;;;;;6.73;1.50;;;;;;;7.02;69.35;99612.81;5005515;28;98506;-56
2023/12/10 06:43:14;;;;;;;8.40;1.73;;;;;;;6.99;69.47;99613.84;5004107;28;98471;-57
2023/12/10 06:45:39;;;;;;;3.90;1.20;;;;;;;6.99;69.45;99609.09;5007748;28;97231;-57
2023/12/10 06:48:06;;;;;;;4.97;1.50;;;;;;;7.00;69.35;99623.59;5006117;28;96901;-58
2023/12/10 06:50:32;;;;;;;7.17;1.40;;;;;;;6.97;69.23;99608.88;5005095;28;97355;-58
2023/12/10 06:52:57;;;;;;;10.53;1.47;;;;;;;6.95;69.54;99614.13;5004402;28;97157;-59
2023/12/10 06:55:23;;;;;;;2.80;1.33;;;;;;;6.97;69.45;99622.63;5004585;28;97181;-57
2023/12/10 06:57:48;;;;;;;4.60;1.13;;;;;;;6.95;69.25;99624.38;5005204;28;97083;-57
2023/12/10 07:00:14;;;;;;;7.47;1.73;;;;;;;6.92;69.50;99625.41;5005885;28;97442;-58
2023/12/10 07:02:39;;;;;;;7.33;1.63;;;;;;;6.92;69.55;99620.66;5005358;28;97393;-57
2023/12/10 07:05:06;;;;;;;7.40;1.13;;;;;;;6.92;69.33;99615.16;5006407;28;100931;-56
2023/12/10 07:07:31;;;;;;;4.33;1.30;;;;;;;6.89;69.51;99626.44;5005356;28;97186;-57
2023/12/10 07:09:57;;;;;;;5.80;2.00;;;;;;;6.91;69.61;99621.94;5005497;28;97684;-57
2023/12/10 07:12:22;;;;;;;8.40;1.50;;;;;;;6.93;69.40;99626.91;5004653;28;98975;-57
2023/12/10 07:14:48;;;;;;;6.87;1.60;;;;;;;6.91;69.52;99623.94;5004490;28;97056;-57
2023/12/10 07:17:14;;;;;;;5.37;1.47;;;;;;;6.89;69.55;99631.94;5005320;28;96940;-56
2023/12/10 07:19:39;;;;;;;10.70;1.53;;;;;;;6.85;69.48;99629.47;5005609;28;97270;-59
2023/12/10 07:22:05;;;;;;;9.70;1.70;;;;;;;6.86;69.72;99628.22;5004298;28;96735;-57
2023/12/10 07:24:31;;;;;;;8.07;1.40;;;;;;;6.83;69.57;99626.50;5004371;28;96893;-57
2023/12/10 07:26:57;;;;;;;4.10;1.50;;;;;;;6.84;69.71;99635.50;5003831;28;97481;-57
2023/12/10 07:29:22;;;;;;;4.20;1.40;;;;;;;6.83;69.65;99623.03;5005379;28;97310;-57
2023/12/10 07:31:47;;;;;;;3.27;1.27;;;;;;;6.80;69.75;99618.53;5004581;28;97712;-58
2023/12/10 07:34:13;;;;;;;4.63;1.23;;;;;;;6.83;69.61;99631.28;5004849;28;97240;-57
2023/12/10 07:36:38;;;;;;;7.40;1.27;;;;;;;6.80;69.62;99627.53;5005265;28;96837;-58
2023/12/10 07:39:03;;;;;;;4.30;1.30;;;;;;;6.79;69.79;99631.53;5004146;28;97387;-57
2023/12/10 07:41:29;;;;;;;3.67;1.17;;;;;;;6.81;69.78;99625.53;5004653;28;97088;-57
2023/12/10 07:43:54;;;;;;;7.40;1.77;;;;;;;6.80;69.68;99633.03;5004884;28;96792;-57
2023/12/10 07:46:20;;;;;;;6.40;1.50;;;;;;;6.78;69.73;99638.31;5003906;28;97376;-58
2023/12/10 07:48:45;;;;;;;4.07;1.43;;;;;;;6.79;69.82;99634.28;5004244;28;98543;-57
2023/12/10 07:51:10;;;;;;;8.10;1.50;;;;;;;6.79;69.74;99636.28;5004423;28;98188;-58
2023/12/10 07:53:36;;;;;;;5.27;1.83;;;;;;;6.74;69.90;99629.56;5003641;28;97120;-58
2023/12/10 07:56:01;;;;;;;3.70;1.07;;;;;;;6.76;69.97;99640.84;5004548;28;96900;-58
2023/12/10 07:58:26;;;;;;;7.20;1.60;;;;;;;6.74;70.15;99632.31;5002460;28;97354;-58
2023/12/10 08:00:52;;;;;;;10.13;1.73;;;;;;;6.73;70.06;99635.59;5003380;28;97348;-58
2023/12/10 08:03:17;;;;;;;3.13;1.20;;;;;;;6.73;69.94;99635.59;5002774;28;97322;-58
2023/12/10 08:05:43;;;;;;;6.60;1.10;;;;;;;6.73;69.97;99624.59;5004398;28;97634;-57
2023/12/10 08:08:08;;;;;;;2.67;1.20;;;;;;;6.78;70.05;99638.31;5002931;28;96733;-57
2023/12/10 08:10:34;;;;;;;3.33;1.63;;;;;;;6.80;69.90;99641.28;5003971;28;97051;-59
2023/12/10 08:12:59;;;;;;;6.40;1.70;;;;;;;6.81;70.08;99645.50;5003786;28;97354;-58
2023/12/10 08:15:25;;;;;;;6.93;2.07;;;;;;;6.80;70.02;99635.03;5004727;28;96888;-57
2023/12/10 08:17:52;;;;;;;4.83;2.33;;;;;;;6.79;70.00;99645.28;5003354;28;97719;-57
2023/12/10 08:20:17;;;;;;;7.33;1.23;;;;;;;6.83;69.89;99648.50;5005076;28;96653;-57
2023/12/10 08:22:42;;;;;;;4.10;1.93;;;;;;;6.85;69.99;99648.00;5003370;28;97195;-57
2023/12/10 08:25:08;;;;;;;6.40;1.37;;;;;;;6.85;69.93;99650.75;5003959;28;97143;-57
2023/12/10 08:27:33;;;;;;;6.10;1.50;;;;;;;6.86;69.97;99646.72;5004027;28;96732;-57
2023/12/10 08:29:59;;;;;;;3.30;1.30;;;;;;;6.86;69.90;99654.97;5005223;28;97115;-57
2023/12/10 08:32:24;;;;;;;5.00;1.60;;;;;;;6.86;70.09;99647.47;5003062;28;97497;-57
2023/12/10 08:34:49;;;;;;;12.73;2.10;;;;;;;6.87;70.05;99639.97;5003759;28;97370;-58
2023/12/10 08:37:15;;;;;;;8.60;1.70;;;;;;;6.89;70.12;99651.19;5003380;28;97060;-58
2023/12/10 08:39:42;;;;;;;7.50;1.90;;;;;;;6.90;69.93;99650.69;5002559;28;98475;-58
2023/12/10 08:42:07;;;;;;;5.57;1.17;;;;;;;6.91;70.00;99651.44;5005833;28;96710;-57
2023/12/10 08:44:33;;;;;;;8.03;1.40;;;;;;;6.92;69.99;99650.91;5003659;28;97189;-58
2023/12/10 08:46:58;;;;;;;4.30;1.20;;;;;;;6.95;70.02;99651.88;5003996;28;97285;-57
2023/12/10 08:49:23;;;;;;;6.20;1.40;;;;;;;6.94;69.99;99667.63;5004474;28;97307;-58
2023/12/10 08:51:49;;;;;;;10.73;1.50;;;;;;;6.94;70.02;99661.41;5003438;28;97062;-58
2023/12/10 08:54:14;;;;;;;2.60;1.20;;;;;;;6.95;70.00;99669.13;5004178;28;97382;-58
2023/12/10 08:56:39;;;;;;;4.10;1.17;;;;;;;6.97;70.13;99677.59;5002858;28;98546;-57
2023/12/10 08:59:05;;;;;;;9.30;1.97;;;;;;;6.97;70.14;99672.09;5003788;28;96638;-57
2023/12/10 09:01:30;;;;;;;10.10;1.83;;;;;;;7.00;70.09;99679.34;5003217;28;97241;-57
2023/12/10 09:03:56;;;;;;;5.33;1.50;;;;;;;6.99;70.03;99674.34;5003606;28;97270;-57
2023/12/10 09:06:21;;;;;;;3.57;1.00;;;;;;;6.99;70.10;99668.84;5004221;28;97097;-57
2023/12/10 09:08:47;;;;;;;5.00;1.40;;;;;;;6.95;70.16;99680.13;5003583;28;96960;-57
2023/12/10 09:11:13;;;;;;;7.27;1.77;;;;;;;6.97;70.39;99683.09;5004107;28;96795;-57
2023/12/10 09:13:38;;;;;;;5.63;1.43;;;;;;;7.01;70.11;99680.81;5004974;28;100351;-55
2023/12/10 09:16:06;;;;;;;5.50;1.30;;;;;;;7.04;70.10;99692.78;5003480;28;96661;-57
2023/12/10 09:18:32;;;;;;;11.97;1.60;;;;;;;7.02;70.16;99706.31;5004423;28;97133;-57
2023/12/10 09:20:58;;;;;;;3.10;1.30;;;;;;;7.00;70.29;99693.09;5007240;28;97109;-57
2023/12/10 09:25:59;;;;;;;5.93;2.00;;;;;;;7.04;70.20;99709.28;5002299;28;98190;-55
2023/12/10 09:28:24;;;;;;;7.00;1.70;;;;;;;7.04;70.33;99693.53;5005962;28;98647;-55
2023/12/10 09:30:50;;;;;;;9.10;1.77;;;;;;;7.07;70.31;99700.75;5005538;28;97356;-55
2023/12/10 09:33:15;;;;;;;5.70;2.10;;;;;;;7.13;70.16;99703.47;5005514;28;96894;-55
2023/12/10 09:35:40;;;;;;;4.03;1.37;;;;;;;7.17;70.03;99714.16;4999259;28;97162;-55
2023/12/10 09:38:06;;;;;;;8.60;1.77;;;;;;;7.14;70.08;99704.94;5000025;28;97546;-55
2023/12/10 09:40:31;;;;;;;5.13;1.40;;;;;;;7.17;70.20;99708.66;5000264;28;96982;-56
2023/12/10 09:42:57;;;;;;;8.33;2.03;;;;;;;7.21;70.24;99718.13;4997862;28;96824;-56
2023/12/10 09:45:23;;;;;;;5.80;1.57;;;;;;;7.23;70.23;99710.09;4998351;28;97227;-56
2023/12/10 09:47:48;;;;;;;5.70;1.23;;;;;;;7.25;70.24;99717.81;4996161;28;97745;-55
2023/12/10 09:50:14;;;;;;;5.00;1.73;;;;;;;7.26;70.18;99713.81;4998181;28;96972;-56
2023/12/10 09:52:39;;;;;;;5.60;1.30;;;;;;;7.30;70.27;99719.78;4995836;28;97376;-55
2023/12/10 09:55:05;;;;;;;3.53;1.40;;;;;;;7.34;70.09;99720.22;4994330;28;97166;-56
2023/12/10 09:57:30;;;;;;;4.20;1.40;;;;;;;7.36;70.12;99731.47;4994609;28;97217;-56
2023/12/10 09:59:56;;;;;;;3.80;1.90;;;;;;;7.37;70.10;99727.47;4994385;28;96619;-56
2023/12/10 10:02:30;;;;;;;10.00;1.63;;;;;;;7.40;70.22;99745.72;4994781;28;97053;-55
2023/12/10 10:04:55;;;;;;;4.00;1.60;;;;;;;7.39;70.09;99746.94;4999494;28;97226;-56
2023/12/10 10:07:21;;;;;;;6.53;1.63;;;;;;;7.40;70.20;99738.19;4991603;28;97377;-55
2023/12/10 10:09:46;;;;;;;3.70;1.10;;;;;;;7.39;70.28;99755.97;4994856;28;96692;-56
2023/12/10 10:12:13;;;;;;;5.77;1.63;;;;;;;7.42;70.30;99754.19;4999259;28;96985;-55
2023/12/10 10:14:52;;;;;;;7.23;1.67;;;;;;;7.43;70.16;99772.94;4994542;28;96805;-55
2023/12/10 10:17:26;;;;;;;4.60;1.10;;;;;;;7.44;70.29;99768.91;4993823;28;97076;-56
2023/12/10 10:19:51;;;;;;;4.10;1.50;;;;;;;7.44;70.22;99766.16;4994088;28;97298;-55
2023/12/10 10:22:17;;;;;;;4.33;1.43;;;;;;;7.46;70.32;99758.16;4994923;28;97410;-56
2023/12/10 10:24:43;;;;;;;2.33;0.93;;;;;;;7.50;70.29;99766.09;4993511;28;97790;-56
2023/12/10 10:27:08;;;;;;;5.43;1.00;;;;;;;7.51;70.24;99768.31;4997364;28;96650;-55
2023/12/10 10:29:34;;;;;;;3.30;1.20;;;;;;;7.52;70.24;99763.56;4992491;28;97010;-55
2023/12/10 10:32:00;;;;;;;3.20;0.80;;;;;;;7.54;70.25;99772.06;4997860;28;97246;-56
2023/12/10 10:34:26;;;;;;;8.73;1.33;;;;;;;7.53;70.26;99776.81;4994786;28;97191;-56
2023/12/10 10:36:52;;;;;;;3.57;1.17;;;;;;;7.53;70.40;99771.31;4996282;28;96935;-56
2023/12/10 10:39:17;;;;;;;5.20;0.87;;;;;;;7.55;70.32;99776.31;4996603;28;97082;-56
2023/12/10 10:41:43;;;;;;;2.53;1.03;;;;;;;7.57;70.27;99777.28;4996597;28;97111;-56
2023/12/10 10:44:08;;;;;;;2.30;0.87;;;;;;;7.56;70.45;99786.81;4995787;28;97322;-55
2023/12/10 10:46:34;;;;;;;2.43;0.73;;;;;;;7.59;70.34;99790.53;4993743;28;97064;-56
2023/12/10 10:49:00;;;;;;;3.40;0.80;;;;;;;7.61;70.28;99788.00;4994510;28;96687;-56
2023/12/10 10:51:28;;;;;;;4.00;0.83;;;;;;;7.62;70.28;99786.72;4996337;28;96656;-55
2023/12/10 10:53:58;;;;;;;3.30;1.00;;;;;;;7.61;70.41;99799.00;4994037;28;99546;-55
2023/12/10 10:56:24;;;;;;;2.27;1.00;;;;;;;7.64;70.44;99803.47;4997999;28;98742;-56
2023/12/10 10:58:50;;;;;;;2.70;1.00;;;;;;;7.66;70.25;99818.22;5009051;28;96912;-56
2023/12/10 11:01:37;;;;;;;2.20;0.90;;;;;;;7.68;70.57;99804.69;4997122;28;97032;-56
2023/12/10 11:04:02;;;;;;;1.70;0.70;;;;;;;7.70;70.52;99823.44;4991561;28;97691;-56
2023/12/10 11:06:28;;;;;;;2.30;0.70;;;;;;;7.77;70.29;99822.84;4994937;28;97013;-56
2023/12/10 11:08:59;;;;;;;2.10;0.90;;;;;;;7.82;70.37;99819.31;4997583;28;96750;-56
2023/12/10 11:11:26;;;;;;;2.93;0.87;;;;;;;7.82;70.27;99827.56;4996906;28;97175;-56
2023/12/10 11:13:53;;;;;;;4.97;1.37;;;;;;;7.83;69.93;99826.31;4995279;28;97033;-56
2023/12/10 11:16:18;;;;;;;2.20;0.87;;;;;;;7.81;70.13;99826.09;4996174;28;96592;-56
2023/12/10 11:18:51;;;;;;;3.70;1.00;;;;;;;7.78;70.24;99830.63;4995187;28;97193;-56
2023/12/10 11:21:18;;;;;;;1.97;0.80;;;;;;;7.76;70.14;99837.91;4996405;28;96663;-56
2023/12/10 11:23:43;;;;;;;1.83;0.80;;;;;;;7.77;70.37;99845.63;4993930;28;97196;-56
2023/12/10 11:26:08;;;;;;;2.87;0.93;;;;;;;7.80;70.55;99852.13;4992730;28;97084;-56
2023/12/10 11:28:34;;;;;;;2.03;0.93;;;;;;;7.82;70.30;99849.59;4989610;28;96753;-56
2023/12/10 11:30:59;;;;;;;2.70;0.60;;;;;;;7.79;70.38;99858.91;4994670;28;97391;-56
2023/12/10 11:33:25;;;;;;;2.53;0.57;;;;;;;7.81;70.20;99859.84;4995231;28;97110;-56
2023/12/10 11:35:50;;;;;;;3.77;0.70;;;;;;;7.82;70.49;99866.13;4996757;28;96610;-56